Time;durP1;ratioP1;P1;durP2;ratioP2;P2;SDS_P1;SDS_P2;PMS_P1;PMS_P2;Temp;Humidity;BMP_temperature;BMP_pressure;BME280_temperature;BME280_humidity;BME280_pressure;Samples;Min_cycle;Max_cycle;Signal;HPM_P1;HPM_P2
2023/01/21 00:00:43;;;;;;;15.20;9.40;;;;;;;1.24;85.41;100224.85;131636;1248;107478;-73
2023/01/21 00:03:58;;;;;;;16.20;8.80;;;;;;;1.28;85.21;100214.11;131775;1251;107531;-72
2023/01/21 00:07:04;;;;;;;13.00;8.00;;;;;;;1.29;85.18;100218.05;131851;1254;107528;-75
2023/01/21 00:10:11;;;;;;;15.20;9.30;;;;;;;1.29;85.12;100222.64;131696;1251;107320;-75
2023/01/21 00:13:16;;;;;;;14.60;8.60;;;;;;;1.23;84.91;100231.21;131666;1252;107495;-75
2023/01/21 00:16:22;;;;;;;13.50;7.50;;;;;;;1.17;85.06;100229.98;131776;1252;107530;-74
2023/01/21 00:19:28;;;;;;;11.70;7.20;;;;;;;1.16;85.17;100229.52;131793;1251;107580;-73
2023/01/21 00:22:34;;;;;;;11.70;7.00;;;;;;;1.18;85.09;100230.47;131797;1247;107725;-74
2023/01/21 00:25:39;;;;;;;13.40;7.60;;;;;;;1.17;84.95;100227.05;131669;1247;108585;-74
2023/01/21 00:28:45;;;;;;;13.80;7.70;;;;;;;1.15;85.00;100222.94;131755;1253;107551;-74
2023/01/21 00:31:51;;;;;;;12.80;7.30;;;;;;;1.12;84.83;100222.40;131836;1253;107538;-74
2023/01/21 00:34:56;;;;;;;14.90;8.20;;;;;;;1.08;84.87;100231.27;131640;1248;107549;-74
2023/01/21 00:38:02;;;;;;;14.40;7.50;;;;;;;1.04;84.86;100236.59;131826;1253;106522;-75
2023/01/21 00:41:09;;;;;;;11.10;6.90;;;;;;;1.03;85.06;100236.30;131744;1250;107448;-73
2023/01/21 00:44:15;;;;;;;13.00;7.80;;;;;;;1.08;84.89;100228.61;131994;1254;107465;-74
2023/01/21 00:47:20;;;;;;;15.00;7.20;;;;;;;1.10;84.81;100239.89;131656;1252;107517;-75
2023/01/21 00:50:26;;;;;;;12.40;7.50;;;;;;;1.10;84.86;100237.08;131813;1248;107354;-73
2023/01/21 00:53:33;;;;;;;12.10;7.10;;;;;;;1.06;84.73;100229.98;131650;1247;108693;-74
2023/01/21 00:56:38;;;;;;;12.90;7.70;;;;;;;1.04;85.02;100219.61;131658;1247;107223;-75
2023/01/21 00:59:44;;;;;;;13.90;8.40;;;;;;;1.03;84.76;100209.87;131689;1253;105771;-74
2023/01/21 01:02:49;;;;;;;12.20;7.20;;;;;;;1.01;84.68;100204.69;131645;1248;107499;-74
2023/01/21 01:06:00;;;;;;;12.90;7.40;;;;;;;1.06;84.99;100203.70;131738;1248;107940;-78
2023/01/21 01:09:06;;;;;;;12.30;7.30;;;;;;;1.11;84.87;100198.50;131760;1248;107449;-73
2023/01/21 01:12:12;;;;;;;12.40;6.90;;;;;;;1.11;84.71;100186.39;131678;1247;108664;-74
2023/01/21 01:15:17;;;;;;;12.80;8.00;;;;;;;1.08;84.88;100185.36;131618;1247;107545;-74
2023/01/21 01:18:24;;;;;;;15.20;7.80;;;;;;;1.06;85.00;100177.41;131654;1252;107507;-72
2023/01/21 01:21:29;;;;;;;13.90;7.40;;;;;;;1.08;85.03;100184.48;131713;1247;107494;-79
2023/01/21 01:24:35;;;;;;;12.70;7.40;;;;;;;1.11;85.33;100188.47;131647;1247;107525;-74
2023/01/21 01:27:40;;;;;;;14.40;8.00;;;;;;;1.09;85.77;100188.46;131724;1250;105997;-73
2023/01/21 01:30:47;;;;;;;12.80;8.10;;;;;;;1.02;86.86;100185.73;131762;1253;107564;-76
2023/01/21 01:33:53;;;;;;;13.70;7.50;;;;;;;0.97;87.24;100186.17;131715;1247;107473;-74
2023/01/21 01:36:58;;;;;;;13.20;7.90;;;;;;;0.93;87.17;100179.44;131692;1248;107498;-74
2023/01/21 01:40:04;;;;;;;14.00;7.90;;;;;;;0.82;88.00;100167.52;131836;1253;107911;-78
2023/01/21 01:43:17;;;;;;;12.50;7.40;;;;;;;0.76;88.43;100158.01;131871;1247;107547;-73
2023/01/21 01:46:25;;;;;;;12.50;7.50;;;;;;;0.75;88.31;100150.06;131813;1252;106965;-78
2023/01/21 01:49:31;;;;;;;12.10;7.10;;;;;;;0.78;88.04;100156.02;131686;1248;107848;-74
2023/01/21 01:52:37;;;;;;;12.10;6.80;;;;;;;0.81;87.82;100156.72;131702;1247;106925;-74
2023/01/21 01:55:43;;;;;;;12.40;7.10;;;;;;;0.74;88.25;100147.81;131726;1253;107499;-74
2023/01/21 01:58:49;;;;;;;13.30;7.60;;;;;;;0.70;88.65;100150.70;131769;1252;107548;-74
2023/01/21 02:01:56;;;;;;;11.40;6.40;;;;;;;0.70;88.75;100151.60;131755;1248;108493;-74
2023/01/21 02:05:05;;;;;;;11.40;6.20;;;;;;;0.71;88.50;100153.63;131865;1253;107583;-73
2023/01/21 02:08:12;;;;;;;12.20;6.80;;;;;;;0.74;88.43;100152.58;131908;1253;107266;-75
2023/01/21 02:11:19;;;;;;;12.10;6.10;;;;;;;0.77;88.39;100145.39;131679;1252;107471;-79
2023/01/21 02:14:25;;;;;;;11.10;6.30;;;;;;;0.72;88.76;100138.88;131759;1253;107504;-74
2023/01/21 02:17:47;;;;;;;11.40;6.50;;;;;;;0.65;89.46;100137.15;131818;1248;107302;-74
2023/01/21 02:21:17;;;;;;;12.10;6.70;;;;;;;0.71;89.71;100141.89;131728;1253;107799;-79
2023/01/21 02:24:58;;;;;;;11.30;6.20;;;;;;;0.73;89.53;100141.79;131793;1247;107428;-75
2023/01/21 02:28:23;;;;;;;10.80;6.50;;;;;;;0.73;89.47;100130.56;131819;1247;107241;-75
2023/01/21 02:31:56;;;;;;;12.60;6.80;;;;;;;0.70;89.50;100128.68;131787;1247;107247;-73
2023/01/21 02:35:09;;;;;;;12.00;7.50;;;;;;;0.67;90.11;100129.21;131798;1248;107665;-77
2023/01/21 02:38:26;;;;;;;12.40;7.20;;;;;;;0.63;89.79;100122.41;131834;1252;107790;-80
2023/01/21 02:41:43;;;;;;;10.80;7.00;;;;;;;0.68;89.84;100119.31;131806;1253;107483;-78
2023/01/21 02:44:56;;;;;;;12.10;7.20;;;;;;;0.65;90.61;100127.73;131774;1248;107307;-75
2023/01/21 02:48:08;;;;;;;11.80;7.00;;;;;;;0.62;90.33;100118.27;131759;1248;108512;-72
2023/01/21 02:51:14;;;;;;;12.60;7.30;;;;;;;0.63;90.45;100115.29;131769;1248;108531;-76
2023/01/21 02:54:50;;;;;;;11.90;7.10;;;;;;;0.64;90.33;100106.64;131681;1253;107191;-73
2023/01/21 02:58:00;;;;;;;11.50;6.20;;;;;;;0.63;90.41;100104.05;131664;1247;107585;-74
2023/01/21 03:01:14;;;;;;;12.60;6.60;;;;;;;0.66;90.39;100101.96;131713;1248;107352;-74
2023/01/21 03:04:42;;;;;;;11.40;6.80;;;;;;;0.72;90.25;100096.85;131669;1247;107445;-76
2023/01/21 03:07:55;;;;;;;12.00;6.90;;;;;;;0.65;90.95;100097.96;131643;1247;107235;-76
2023/01/21 03:11:09;;;;;;;11.30;6.60;;;;;;;0.52;92.55;100088.94;131677;1253;107681;-75
2023/01/21 03:17:52;;;;;;;11.10;6.50;;;;;;;0.47;93.09;100079.12;131790;1254;105704;-74
2023/01/21 03:21:02;;;;;;;11.50;6.70;;;;;;;0.42;93.29;100074.72;131713;1247;107209;-73
2023/01/21 03:24:13;;;;;;;11.70;6.60;;;;;;;0.34;92.94;100068.84;131767;1252;107210;-74
2023/01/21 03:27:23;;;;;;;8.50;5.80;;;;;;;0.32;93.30;100060.23;131730;1253;107342;-72
2023/01/21 03:30:33;;;;;;;9.90;5.90;;;;;;;0.29;93.58;100057.61;131753;1253;107271;-75
2023/01/21 03:33:42;;;;;;;10.60;5.90;;;;;;;0.26;93.90;100055.69;131599;1252;107327;-74
2023/01/21 03:36:53;;;;;;;10.50;6.40;;;;;;;0.15;95.26;100059.70;131703;1253;107481;-73
2023/01/21 03:40:10;;;;;;;11.70;6.80;;;;;;;0.13;95.45;100062.09;131784;1253;107817;-73
2023/01/21 03:43:15;;;;;;;8.50;5.60;;;;;;;0.11;95.79;100055.75;131688;1252;107559;-73
2023/01/21 03:46:26;;;;;;;10.20;6.00;;;;;;;0.10;95.45;100060.34;131849;1253;105872;-73
2023/01/21 03:49:37;;;;;;;10.90;6.60;;;;;;;0.13;95.13;100055.11;131725;1247;107360;-73
2023/01/21 03:52:45;;;;;;;10.70;6.40;;;;;;;0.13;95.15;100051.05;131896;1252;107196;-72
2023/01/21 03:55:52;;;;;;;10.70;6.20;;;;;;;0.08;95.55;100045.60;131799;1248;107534;-74
2023/01/21 03:58:58;;;;;;;8.60;5.40;;;;;;;0.00;96.06;100033.29;131736;1248;107359;-72
2023/01/21 04:02:03;;;;;;;10.00;5.80;;;;;;;-0.00;96.22;100034.37;131747;1253;107529;-72
2023/01/21 04:05:10;;;;;;;9.40;5.30;;;;;;;-0.04;96.65;100036.67;131759;1253;107607;-73
2023/01/21 04:08:15;;;;;;;10.10;5.90;;;;;;;-0.07;96.54;100024.61;131685;1252;108661;-73
2023/01/21 04:11:21;;;;;;;8.90;5.40;;;;;;;-0.13;97.22;100017.13;131783;1253;106368;-72
2023/01/21 04:14:26;;;;;;;7.90;5.10;;;;;;;-0.14;97.66;100012.06;131787;1252;122744;-72
2023/01/21 04:17:32;;;;;;;8.40;5.30;;;;;;;-0.12;97.99;99999.91;131742;1247;107396;-74
2023/01/21 04:20:38;;;;;;;8.90;5.60;;;;;;;-0.13;97.57;99999.27;131769;1252;106545;-74
2023/01/21 04:23:44;;;;;;;9.60;5.40;;;;;;;-0.14;97.41;99996.69;131940;1253;107336;-74
2023/01/21 04:26:49;;;;;;;7.80;4.90;;;;;;;-0.23;97.73;99988.30;131935;1251;107435;-75
2023/01/21 04:29:55;;;;;;;9.20;6.10;;;;;;;-0.24;97.95;99993.94;131924;1251;107558;-74
2023/01/21 04:33:01;;;;;;;9.50;5.40;;;;;;;-0.16;97.60;100003.31;131903;1251;107369;-75
2023/01/21 04:36:08;;;;;;;11.80;6.30;;;;;;;-0.14;97.48;100003.52;131852;1252;107883;-76
2023/01/21 04:39:13;;;;;;;9.30;5.40;;;;;;;-0.13;97.33;100008.73;131889;1248;107460;-76
2023/01/21 04:42:19;;;;;;;8.30;5.30;;;;;;;-0.12;97.34;100007.04;132044;1247;107410;-71
2023/01/21 04:45:26;;;;;;;10.50;6.10;;;;;;;-0.12;96.86;100001.28;131702;1248;107954;-79
2023/01/21 04:48:32;;;;;;;9.40;5.30;;;;;;;-0.12;97.01;100011.58;131899;1247;108664;-74
2023/01/21 04:51:37;;;;;;;9.80;5.90;;;;;;;-0.09;96.88;100022.09;131833;1253;107268;-72
2023/01/21 04:54:44;;;;;;;7.00;4.40;;;;;;;-0.06;96.99;100025.05;131822;1253;105620;-77
2023/01/21 04:57:49;;;;;;;7.90;5.10;;;;;;;-0.06;97.01;100022.45;131924;1248;107450;-74
2023/01/21 05:00:55;;;;;;;8.10;5.20;;;;;;;-0.06;96.69;100010.58;131912;1248;107506;-73
2023/01/21 05:04:02;;;;;;;8.70;5.10;;;;;;;-0.04;96.43;100011.13;131606;1248;108560;-77
2023/01/21 05:07:08;;;;;;;8.90;5.60;;;;;;;-0.02;96.60;100015.71;131632;1247;106714;-74
2023/01/21 05:10:17;;;;;;;9.20;5.20;;;;;;;0.01;96.40;100015.07;131583;1253;107115;-74
2023/01/21 05:13:22;;;;;;;8.30;4.90;;;;;;;0.06;96.35;100017.52;131617;1253;107209;-73
2023/01/21 05:16:28;;;;;;;9.40;5.80;;;;;;;0.08;96.34;100014.95;131680;1248;107485;-73
2023/01/21 05:19:33;;;;;;;8.40;5.40;;;;;;;0.15;96.51;100022.45;131661;1253;107521;-73
2023/01/21 05:22:39;;;;;;;7.20;5.00;;;;;;;0.14;95.96;100016.73;131684;1247;107242;-74
2023/01/21 05:25:44;;;;;;;7.80;5.20;;;;;;;0.09;96.02;100011.61;131675;1252;108701;-74
2023/01/21 05:28:50;;;;;;;9.60;5.80;;;;;;;0.02;96.40;100011.10;131647;1254;107493;-74
2023/01/21 05:31:56;;;;;;;9.50;5.10;;;;;;;-0.04;96.59;100007.66;131590;1252;107535;-77
2023/01/21 05:35:02;;;;;;;9.00;5.50;;;;;;;-0.07;97.34;100015.34;131741;1247;107468;-73
2023/01/21 05:38:07;;;;;;;9.10;5.70;;;;;;;-0.06;97.06;100015.29;131609;1248;107493;-74
2023/01/21 05:41:13;;;;;;;10.40;5.60;;;;;;;-0.08;97.25;100017.31;131654;1253;106510;-76
2023/01/21 05:44:19;;;;;;;11.60;5.60;;;;;;;-0.13;97.03;100014.47;131784;1250;107285;-73
2023/01/21 05:47:24;;;;;;;9.00;5.80;;;;;;;-0.11;96.86;100007.54;131807;1248;107482;-72
2023/01/21 05:50:31;;;;;;;8.90;5.40;;;;;;;-0.08;96.80;100010.48;131598;1247;107491;-75
2023/01/21 05:53:37;;;;;;;9.60;5.90;;;;;;;-0.05;96.87;100009.80;131802;1247;107265;-74
2023/01/21 05:56:42;;;;;;;9.70;6.40;;;;;;;-0.02;96.90;100013.64;131600;1253;107224;-74
2023/01/21 05:59:48;;;;;;;9.90;6.00;;;;;;;-0.03;96.88;100016.34;131696;1251;107515;-74
2023/01/21 06:02:53;;;;;;;9.20;5.70;;;;;;;-0.01;96.73;100013.73;131896;1251;107478;-74
2023/01/21 06:05:59;;;;;;;9.80;6.00;;;;;;;0.05;96.60;100016.22;131960;1247;108010;-75
2023/01/21 06:09:04;;;;;;;7.30;4.70;;;;;;;0.09;96.38;100013.13;131888;1261;107264;-74
2023/01/21 06:12:10;;;;;;;9.40;5.50;;;;;;;0.02;96.67;100017.45;131912;1248;107449;-76
2023/01/21 06:15:15;;;;;;;9.20;6.00;;;;;;;-0.02;96.93;100012.22;131766;1252;107552;-75
2023/01/21 06:18:21;;;;;;;9.00;5.60;;;;;;;-0.01;97.21;100014.44;131914;1253;107563;-72
2023/01/21 06:21:26;;;;;;;9.00;5.60;;;;;;;-0.01;96.93;100007.30;132028;1253;107546;-73
2023/01/21 06:24:32;;;;;;;9.30;5.90;;;;;;;0.06;97.12;100006.67;132091;1247;107618;-75
2023/01/21 06:27:38;;;;;;;10.80;6.30;;;;;;;0.10;96.56;100005.59;131891;1252;108664;-72
2023/01/21 06:30:43;;;;;;;10.70;5.80;;;;;;;0.08;96.80;100009.21;131767;1247;105833;-73
2023/01/21 06:33:49;;;;;;;9.00;4.80;;;;;;;0.07;96.54;100007.02;131780;1253;107531;-76
2023/01/21 06:36:54;;;;;;;8.00;5.30;;;;;;;0.11;96.42;100010.23;131736;1250;107565;-74
2023/01/21 06:40:00;;;;;;;8.30;5.10;;;;;;;0.16;96.50;100006.06;131831;1248;107470;-74
2023/01/21 06:43:05;;;;;;;8.90;5.70;;;;;;;0.18;96.39;100009.46;132003;1253;108154;-73
2023/01/21 06:46:11;;;;;;;6.70;4.40;;;;;;;0.11;96.38;100009.52;132183;1251;107258;-75
2023/01/21 06:49:17;;;;;;;7.30;3.80;;;;;;;0.15;96.56;100008.80;132222;1250;107909;-75
2023/01/21 06:52:23;;;;;;;6.40;3.70;;;;;;;0.13;96.65;100005.73;132225;1247;107413;-70
2023/01/21 06:55:29;;;;;;;6.30;4.30;;;;;;;0.13;96.70;100007.70;131512;1247;107237;-72
2023/01/21 06:58:34;;;;;;;6.30;4.20;;;;;;;0.11;96.52;100005.74;131275;1247;108369;-71
2023/01/21 07:01:40;;;;;;;6.30;4.10;;;;;;;0.07;96.50;100007.88;131177;1247;107471;-73
2023/01/21 07:04:48;;;;;;;4.80;3.20;;;;;;;-0.01;97.00;100012.90;131727;1248;107333;-73
2023/01/21 07:07:56;;;;;;;5.30;3.50;;;;;;;0.03;96.99;100006.36;131969;1247;107309;-75
2023/01/21 07:11:02;;;;;;;5.10;3.70;;;;;;;0.11;97.03;100016.75;131701;1252;107506;-70
2023/01/21 07:14:08;;;;;;;6.70;3.60;;;;;;;0.07;97.07;100018.34;131400;1249;107593;-71
2023/01/21 07:17:15;;;;;;;4.50;3.10;;;;;;;0.07;96.92;100020.78;131306;1253;107408;-71
2023/01/21 07:20:21;;;;;;;7.40;4.20;;;;;;;0.12;96.89;100019.98;131147;1253;107373;-71
2023/01/21 07:23:28;;;;;;;3.70;2.50;;;;;;;0.21;97.05;100024.36;131787;1247;108049;-72
2023/01/21 07:26:36;;;;;;;5.70;3.60;;;;;;;0.21;96.94;100020.34;132483;1248;107258;-73
2023/01/21 07:29:42;;;;;;;4.30;2.70;;;;;;;0.22;97.24;100017.80;131694;1253;107477;-73
2023/01/21 07:32:48;;;;;;;4.70;2.90;;;;;;;0.24;97.27;100011.91;131457;1251;107990;-71
2023/01/21 07:35:54;;;;;;;3.50;2.20;;;;;;;0.24;96.94;100014.89;131607;1253;108087;-70
2023/01/21 07:39:00;;;;;;;3.20;2.00;;;;;;;0.27;97.13;100007.38;131830;1253;107534;-71
2023/01/21 07:42:06;;;;;;;3.90;2.80;;;;;;;0.29;96.85;100003.05;131258;1260;108646;-70
2023/01/21 07:45:12;;;;;;;4.40;2.50;;;;;;;0.33;97.18;100001.58;131307;1250;107998;-72
2023/01/21 07:48:18;;;;;;;3.50;2.40;;;;;;;0.38;97.01;100003.89;131089;1247;107390;-68
2023/01/21 07:51:24;;;;;;;4.30;2.80;;;;;;;0.43;97.20;100006.75;131007;1248;107813;-69
2023/01/21 07:54:29;;;;;;;3.30;2.50;;;;;;;0.43;97.48;99999.95;131283;1248;107987;-70
2023/01/21 07:57:35;;;;;;;3.30;2.00;;;;;;;0.51;97.57;100001.17;130854;1253;108006;-69
2023/01/21 08:00:40;;;;;;;2.70;1.60;;;;;;;0.58;97.13;100001.10;130863;1247;107832;-71
2023/01/21 08:03:46;;;;;;;2.40;1.70;;;;;;;0.62;96.82;100003.27;130967;1248;108014;-71
2023/01/21 08:06:55;;;;;;;2.30;1.30;;;;;;;0.64;96.64;100003.33;131160;1248;107936;-71
2023/01/21 08:10:01;;;;;;;4.00;2.50;;;;;;;0.65;96.46;99999.77;130999;1257;107998;-69
2023/01/21 08:13:07;;;;;;;4.00;2.60;;;;;;;0.71;96.47;99997.62;131460;1253;108399;-70
2023/01/21 08:16:13;;;;;;;3.00;1.80;;;;;;;0.82;96.34;99995.17;132658;1247;107608;-73
2023/01/21 08:19:19;;;;;;;3.50;1.70;;;;;;;0.86;95.84;100002.80;131977;1253;108792;-74
2023/01/21 08:22:24;;;;;;;3.10;1.60;;;;;;;0.93;95.92;100003.98;131529;1253;110203;-74
2023/01/21 08:25:30;;;;;;;4.40;2.70;;;;;;;1.02;95.63;99996.21;132135;1248;107994;-72
2023/01/21 08:28:35;;;;;;;5.70;2.80;;;;;;;1.07;95.04;99998.89;131523;1252;107322;-72
2023/01/21 08:31:41;;;;;;;2.60;1.70;;;;;;;1.00;95.12;99997.21;131505;1252;107424;-72
2023/01/21 08:34:47;;;;;;;3.70;2.10;;;;;;;1.00;95.01;100000.02;131812;1253;107595;-70
2023/01/21 08:37:54;;;;;;;2.60;1.70;;;;;;;1.05;94.92;100004.42;132181;1248;108065;-70
2023/01/21 08:40:59;;;;;;;2.90;1.60;;;;;;;1.10;94.86;100004.09;131924;1253;107952;-72
2023/01/21 08:44:06;;;;;;;4.20;2.00;;;;;;;1.22;94.96;100007.73;131908;1251;107521;-78
2023/01/21 08:47:12;;;;;;;4.60;2.20;;;;;;;1.26;94.68;100013.05;131672;1252;107506;-71
2023/01/21 08:50:18;;;;;;;5.00;2.40;;;;;;;1.19;94.62;100015.27;131530;1254;107788;-71
2023/01/21 08:53:24;;;;;;;4.70;2.20;;;;;;;1.11;94.85;100013.16;131362;1251;108090;-69
2023/01/21 08:56:30;;;;;;;3.60;1.70;;;;;;;1.15;95.31;100011.66;131051;1260;107923;-70
2023/01/21 08:59:36;;;;;;;3.40;1.60;;;;;;;1.25;95.27;100014.73;131473;1252;108099;-70
2023/01/21 09:02:41;;;;;;;3.50;2.10;;;;;;;1.29;94.82;100016.52;130910;1254;108076;-72
2023/01/21 09:05:50;;;;;;;5.80;2.90;;;;;;;1.35;94.54;100019.98;131106;1253;109113;-71
2023/01/21 09:08:57;;;;;;;8.20;5.20;;;;;;;1.39;94.40;100018.13;131496;1252;107559;-69
2023/01/21 09:12:04;;;;;;;2.70;2.00;;;;;;;1.39;94.67;100012.59;131088;1253;107578;-71
2023/01/21 09:15:11;;;;;;;2.40;1.70;;;;;;;1.42;94.38;100020.09;131463;1253;107502;-77
2023/01/21 09:18:17;;;;;;;3.40;2.30;;;;;;;1.39;94.16;100021.30;131886;1254;106660;-78
2023/01/21 09:21:23;;;;;;;3.50;2.20;;;;;;;1.45;94.03;100020.40;131721;1252;107213;-78
2023/01/21 09:24:29;;;;;;;3.50;2.30;;;;;;;1.48;94.15;100023.17;131870;1253;107547;-75
2023/01/21 09:27:35;;;;;;;3.20;1.80;;;;;;;1.55;93.87;100018.34;132102;1253;107445;-76
2023/01/21 09:30:40;;;;;;;5.10;2.30;;;;;;;1.62;93.78;100017.73;131955;1254;106992;-77
2023/01/21 09:33:48;;;;;;;2.70;1.70;;;;;;;1.67;93.71;100018.83;131800;1247;106887;-73
2023/01/21 09:36:53;;;;;;;3.10;1.80;;;;;;;1.67;93.64;100021.79;131956;1253;109288;-72
2023/01/21 09:39:59;;;;;;;3.00;2.00;;;;;;;1.64;93.33;100020.56;131926;1257;106527;-73
2023/01/21 09:43:14;;;;;;;5.60;2.90;;;;;;;1.61;93.55;100020.59;131872;1253;107587;-73
2023/01/21 09:46:29;;;;;;;13.60;4.70;;;;;;;1.64;93.68;100017.74;131851;1254;107460;-71
2023/01/21 09:49:41;;;;;;;10.20;3.80;;;;;;;1.67;93.90;100023.38;131946;1252;107548;-71
2023/01/21 09:52:50;;;;;;;9.10;3.80;;;;;;;1.68;93.94;100019.45;131958;1253;107473;-74
2023/01/21 09:56:01;;;;;;;12.80;8.20;;;;;;;1.67;93.51;100022.13;131779;1260;106242;-73
2023/01/21 09:59:12;;;;;;;5.70;3.20;;;;;;;1.60;93.58;100022.94;131815;1253;106247;-72
2023/01/21 10:02:26;;;;;;;6.50;3.50;;;;;;;1.56;93.69;100025.29;131708;1247;107476;-73
2023/01/21 10:05:45;;;;;;;5.80;3.10;;;;;;;1.54;93.98;100025.92;131742;1260;107509;-74
2023/01/21 10:09:02;;;;;;;5.00;2.70;;;;;;;1.51;94.41;100027.73;131789;1254;107566;-72
2023/01/21 10:12:26;;;;;;;4.80;2.80;;;;;;;1.55;94.73;100025.34;132247;1248;107605;-72
2023/01/21 10:15:46;;;;;;;6.90;3.30;;;;;;;1.59;94.67;100026.49;131960;1253;107235;-73
2023/01/21 10:18:56;;;;;;;4.70;2.50;;;;;;;1.59;94.53;100024.59;131948;1253;107784;-76
2023/01/21 10:22:09;;;;;;;6.90;3.20;;;;;;;1.61;94.27;100029.89;132021;1247;107314;-71
2023/01/21 10:25:23;;;;;;;5.30;3.10;;;;;;;1.65;94.12;100028.39;132003;1253;107450;-73
2023/01/21 10:28:37;;;;;;;6.10;2.80;;;;;;;1.70;93.88;100030.17;131966;1248;107514;-79
2023/01/21 10:31:44;;;;;;;4.70;2.60;;;;;;;1.77;93.84;100029.87;131897;1248;107816;-74
2023/01/21 10:34:52;;;;;;;5.20;2.90;;;;;;;1.89;93.80;100031.55;132066;1247;107605;-72
2023/01/21 10:38:07;;;;;;;9.80;7.00;;;;;;;1.99;93.49;100032.25;131983;1253;106519;-71
2023/01/21 10:41:34;;;;;;;8.30;3.10;;;;;;;1.99;92.96;100033.33;131897;1253;108665;-72
2023/01/21 10:44:46;;;;;;;7.80;3.00;;;;;;;2.02;92.90;100036.65;131960;1254;107525;-71
2023/01/21 10:48:01;;;;;;;9.10;4.80;;;;;;;2.06;93.22;100036.36;131794;1253;107505;-73
2023/01/21 10:51:14;;;;;;;7.60;2.90;;;;;;;2.06;92.42;100038.85;131707;1257;107391;-73
2023/01/21 10:54:27;;;;;;;6.30;3.00;;;;;;;2.04;92.58;100048.25;131743;1253;108657;-73
2023/01/21 10:57:46;;;;;;;7.60;3.70;;;;;;;2.02;92.38;100048.60;131857;1252;107462;-73
2023/01/21 11:00:55;;;;;;;6.50;3.50;;;;;;;1.95;92.34;100053.04;131825;1248;108652;-73
2023/01/21 11:04:04;;;;;;;5.30;3.10;;;;;;;1.90;92.42;100055.66;131692;1248;107508;-73
2023/01/21 11:07:15;;;;;;;6.00;3.30;;;;;;;1.89;92.59;100056.62;131741;1251;108777;-73
2023/01/21 11:10:23;;;;;;;7.40;3.70;;;;;;;1.91;92.70;100060.15;131811;1253;106570;-74
2023/01/21 11:13:28;;;;;;;5.90;3.50;;;;;;;1.94;92.84;100058.00;131683;1257;107516;-72
2023/01/21 11:16:37;;;;;;;12.00;6.30;;;;;;;1.99;92.62;100063.16;131801;1248;107508;-72
2023/01/21 11:19:57;;;;;;;10.40;5.90;;;;;;;2.03;92.83;100061.28;131969;1252;107535;-75
2023/01/21 11:23:04;;;;;;;7.30;4.30;;;;;;;2.04;92.28;100063.88;132365;1252;108644;-71
2023/01/21 11:26:20;;;;;;;7.50;4.00;;;;;;;2.04;92.36;100063.72;132142;1252;107543;-72
2023/01/21 11:29:27;;;;;;;9.00;4.50;;;;;;;2.03;92.66;100060.98;131942;1247;107504;-75
2023/01/21 11:32:33;;;;;;;14.50;6.60;;;;;;;2.07;92.61;100060.83;132297;1255;107554;-71
2023/01/21 11:35:40;;;;;;;10.40;5.20;;;;;;;2.13;92.38;100063.20;132105;1252;107925;-74
2023/01/21 11:38:48;;;;;;;9.00;5.00;;;;;;;2.17;92.12;100064.92;132143;1252;107826;-73
2023/01/21 11:41:56;;;;;;;8.10;4.60;;;;;;;2.22;92.28;100066.19;132399;1248;105617;-75
2023/01/21 11:45:04;;;;;;;7.90;4.70;;;;;;;2.24;92.06;100066.92;132489;1252;107448;-73
2023/01/21 11:48:21;;;;;;;7.40;4.50;;;;;;;2.22;92.00;100071.58;132371;1252;107617;-75
2023/01/21 11:51:27;;;;;;;9.00;4.70;;;;;;;2.22;91.91;100072.13;131910;1253;107608;-72
2023/01/21 11:54:39;;;;;;;8.20;4.40;;;;;;;2.21;92.17;100079.01;131937;1253;107606;-71
2023/01/21 11:57:45;;;;;;;;;;;;;;;2.22;92.11;100084.27;132032;1254;107248;-71
2023/01/21 12:00:56;;;;;;;11.10;4.60;;;;;;;2.24;91.73;100085.52;131978;1248;107632;-70
2023/01/21 12:04:02;;;;;;;9.50;4.40;;;;;;;2.33;92.19;100086.27;131985;1257;107416;-72
2023/01/21 12:07:17;;;;;;;13.90;7.40;;;;;;;2.46;92.02;100086.83;131561;1254;108536;-74
2023/01/21 12:10:30;;;;;;;9.90;5.40;;;;;;;2.57;91.88;100090.48;131944;1253;107360;-71
2023/01/21 12:13:42;;;;;;;10.70;5.10;;;;;;;2.61;91.66;100089.09;131312;1248;107579;-71
2023/01/21 12:17:01;;;;;;;8.20;4.50;;;;;;;2.63;91.48;100090.72;131458;1252;107354;-71
2023/01/21 12:20:19;;;;;;;8.00;5.00;;;;;;;2.63;91.42;100095.84;132045;1254;107601;-71
2023/01/21 12:23:41;;;;;;;8.80;4.40;;;;;;;2.57;91.10;100104.34;131864;1252;106420;-71
2023/01/21 12:26:53;;;;;;;8.10;4.50;;;;;;;2.49;91.13;100103.08;131768;1260;107359;-71
2023/01/21 12:30:12;;;;;;;7.20;4.30;;;;;;;2.46;91.38;100106.98;131393;1255;107944;-74
2023/01/21 12:33:22;;;;;;;6.30;4.00;;;;;;;2.45;91.61;100111.80;132067;1248;107575;-71
2023/01/21 12:36:32;;;;;;;8.30;4.70;;;;;;;2.43;91.38;100114.95;131158;1254;108028;-71
2023/01/21 12:39:40;;;;;;;9.20;4.90;;;;;;;2.41;91.28;100116.09;131943;1247;107620;-70
2023/01/21 12:42:48;;;;;;;8.60;5.30;;;;;;;2.37;91.36;100114.47;131048;1254;107599;-71
2023/01/21 12:45:57;;;;;;;11.30;6.90;;;;;;;2.37;91.41;100119.56;131914;1253;107541;-72
2023/01/21 12:49:11;;;;;;;12.00;7.30;;;;;;;2.37;91.72;100123.05;131867;1254;107467;-70
2023/01/21 12:52:23;;;;;;;10.40;6.00;;;;;;;2.35;91.46;100127.20;131829;1252;107372;-70
2023/01/21 12:55:39;;;;;;;12.00;7.50;;;;;;;2.30;91.31;100130.86;131199;1253;107805;-70
2023/01/21 12:58:50;;;;;;;9.30;6.30;;;;;;;2.32;91.39;100134.64;131327;1260;108170;-74
2023/01/21 13:02:01;;;;;;;8.80;5.90;;;;;;;2.33;91.30;100136.49;131133;1248;108764;-70
2023/01/21 13:05:13;;;;;;;10.40;6.80;;;;;;;2.36;91.48;100140.51;131903;1248;107530;-70
2023/01/21 13:08:31;;;;;;;9.10;6.60;;;;;;;2.42;91.58;100145.20;131684;1253;107895;-74
2023/01/21 13:11:44;;;;;;;12.20;7.10;;;;;;;2.43;91.00;100156.02;131091;1248;109996;-76
2023/01/21 13:14:55;;;;;;;11.30;7.40;;;;;;;2.38;91.35;100160.94;131070;1258;108070;-70
2023/01/21 13:18:04;;;;;;;9.70;6.60;;;;;;;2.36;91.23;100161.02;131039;1261;107949;-71
2023/01/21 13:21:20;;;;;;;11.90;7.20;;;;;;;2.38;91.31;100169.37;131189;1253;108029;-72
2023/01/21 13:24:32;;;;;;;7.30;5.30;;;;;;;2.38;91.26;100172.01;131958;1253;108250;-72
2023/01/21 13:27:46;;;;;;;11.50;8.20;;;;;;;2.38;91.22;100179.50;131967;1254;107504;-72
2023/01/21 13:30:56;;;;;;;12.00;7.90;;;;;;;2.42;91.14;100178.23;131987;1253;107524;-71
2023/01/21 13:34:11;;;;;;;10.00;7.30;;;;;;;2.41;91.07;100183.53;131970;1253;108653;-71
2023/01/21 13:37:26;;;;;;;11.60;7.50;;;;;;;2.39;91.06;100187.17;131289;1248;107483;-70
2023/01/21 13:40:42;;;;;;;10.80;7.10;;;;;;;2.34;91.19;100189.63;131068;1247;109168;-72
2023/01/21 13:44:08;;;;;;;11.20;7.50;;;;;;;2.34;91.11;100197.70;131748;1253;107715;-74
2023/01/21 13:47:25;;;;;;;11.60;7.50;;;;;;;2.30;91.19;100198.15;131115;1257;108120;-74
2023/01/21 13:50:47;;;;;;;9.40;6.20;;;;;;;2.29;91.28;100205.19;132421;1254;106954;-72
2023/01/21 13:54:16;;;;;;;10.90;7.60;;;;;;;2.32;91.18;100209.57;131887;1248;107326;-73
2023/01/21 13:57:44;;;;;;;12.50;7.90;;;;;;;2.35;91.09;100219.38;131672;1252;107404;-73
2023/01/21 14:00:58;;;;;;;12.10;7.60;;;;;;;2.34;91.25;100221.55;131103;1254;108330;-72
2023/01/21 14:04:11;;;;;;;12.80;8.70;;;;;;;2.30;91.10;100229.53;131746;1250;109282;-72
2023/01/21 14:07:27;;;;;;;14.40;8.60;;;;;;;2.26;90.92;100232.63;131809;1257;107459;-73
2023/01/21 14:10:39;;;;;;;15.90;9.90;;;;;;;2.21;91.24;100238.01;131867;1251;108477;-72
2023/01/21 14:14:10;;;;;;;17.50;10.30;;;;;;;2.20;91.18;100240.22;131698;1254;107971;-72
2023/01/21 14:17:34;;;;;;;14.30;8.50;;;;;;;2.22;91.21;100245.18;131558;1254;108812;-73
2023/01/21 14:20:58;;;;;;;12.90;9.20;;;;;;;2.24;91.17;100252.20;131560;1247;109174;-73
2023/01/21 14:24:21;;;;;;;16.00;10.00;;;;;;;2.30;91.20;100255.70;131868;1247;107519;-71
2023/01/21 14:27:33;;;;;;;329.10;125.80;;;;;;;2.30;91.01;100259.19;131781;1253;107565;-72
2023/01/21 14:30:44;;;;;;;69.60;33.70;;;;;;;2.30;91.18;100263.59;131625;1254;107301;-72